sensor_id;sensor_type;location;lat;lon;timestamp;pressure;altitude;pressure_sealevel;temperature
68911;BMP180;55953;51.650;-0.522;2022-09-09T00:02:27;99334.80;;;17.00
68911;BMP180;55953;51.650;-0.522;2022-09-09T00:05:19;99331.80;;;17.00
68911;BMP180;55953;51.650;-0.522;2022-09-09T00:07:59;99330.60;;;17.00
68911;BMP180;55953;51.650;-0.522;2022-09-09T00:10:37;99328.80;;;17.10
68911;BMP180;55953;51.650;-0.522;2022-09-09T00:13:19;99334.00;;;17.00
68911;BMP180;55953;51.650;-0.522;2022-09-09T00:16:17;99329.80;;;17.00
68911;BMP180;55953;51.650;-0.522;2022-09-09T00:19:01;99326.60;;;17.02
68911;BMP180;55953;51.650;-0.522;2022-09-09T00:27:49;99325.60;;;17.02
68911;BMP180;55953;51.650;-0.522;2022-09-09T00:30:24;99322.40;;;17.02
68911;BMP180;55953;51.650;-0.522;2022-09-09T00:32:58;99321.40;;;17.08
68911;BMP180;55953;51.650;-0.522;2022-09-09T00:35:32;99321.80;;;17.00
68911;BMP180;55953;51.650;-0.522;2022-09-09T00:38:14;99319.60;;;17.10
68911;BMP180;55953;51.650;-0.522;2022-09-09T00:41:14;99323.00;;;17.10
68911;BMP180;55953;51.650;-0.522;2022-09-09T00:43:41;99321.20;;;17.10
68911;BMP180;55953;51.650;-0.522;2022-09-09T00:49:39;99323.80;;;17.00
68911;BMP180;55953;51.650;-0.522;2022-09-09T00:52:32;99319.60;;;17.02
68911;BMP180;55953;51.650;-0.522;2022-09-09T00:55:17;99324.40;;;17.00
68911;BMP180;55953;51.650;-0.522;2022-09-09T00:57:51;99326.60;;;17.00
68911;BMP180;55953;51.650;-0.522;2022-09-09T01:06:22;99326.20;;;16.90
68911;BMP180;55953;51.650;-0.522;2022-09-09T01:12:02;99319.80;;;17.00
68911;BMP180;55953;51.650;-0.522;2022-09-09T01:17:22;99318.20;;;17.00
68911;BMP180;55953;51.650;-0.522;2022-09-09T01:20:11;99317.80;;;17.00
68911;BMP180;55953;51.650;-0.522;2022-09-09T01:26:22;99316.20;;;16.90
68911;BMP180;55953;51.650;-0.522;2022-09-09T01:28:52;99312.80;;;16.90
68911;BMP180;55953;51.650;-0.522;2022-09-09T01:31:38;99316.20;;;16.90
68911;BMP180;55953;51.650;-0.522;2022-09-09T01:34:15;99317.40;;;16.80
68911;BMP180;55953;51.650;-0.522;2022-09-09T01:37:02;99316.40;;;16.74
68911;BMP180;55953;51.650;-0.522;2022-09-09T01:39:35;99310.40;;;16.70
68911;BMP180;55953;51.650;-0.522;2022-09-09T01:42:10;99309.80;;;16.78
68911;BMP180;55953;51.650;-0.522;2022-09-09T01:44:39;99314.00;;;16.70
68911;BMP180;55953;51.650;-0.522;2022-09-09T01:47:08;99312.80;;;16.70
68911;BMP180;55953;51.650;-0.522;2022-09-09T01:49:47;99313.00;;;16.70
68911;BMP180;55953;51.650;-0.522;2022-09-09T01:52:21;99308.40;;;16.70
68911;BMP180;55953;51.650;-0.522;2022-09-09T01:54:49;99310.20;;;16.66
68911;BMP180;55953;51.650;-0.522;2022-09-09T01:57:50;99309.40;;;16.60
68911;BMP180;55953;51.650;-0.522;2022-09-09T02:00:20;99312.40;;;16.60
68911;BMP180;55953;51.650;-0.522;2022-09-09T02:03:12;99312.80;;;16.60
68911;BMP180;55953;51.650;-0.522;2022-09-09T02:08:53;99311.60;;;16.60
68911;BMP180;55953;51.650;-0.522;2022-09-09T02:11:26;99311.60;;;16.60
68911;BMP180;55953;51.650;-0.522;2022-09-09T02:14:06;99311.60;;;16.60
68911;BMP180;55953;51.650;-0.522;2022-09-09T02:16:44;99314.20;;;16.60
68911;BMP180;55953;51.650;-0.522;2022-09-09T02:19:29;99310.20;;;16.50
68911;BMP180;55953;51.650;-0.522;2022-09-09T02:22:04;99310.00;;;16.60
68911;BMP180;55953;51.650;-0.522;2022-09-09T02:24:36;99309.40;;;16.60
68911;BMP180;55953;51.650;-0.522;2022-09-09T02:27:18;99302.40;;;16.50
68911;BMP180;55953;51.650;-0.522;2022-09-09T02:29:49;99310.80;;;16.30
68911;BMP180;55953;51.650;-0.522;2022-09-09T02:32:24;99320.00;;;16.20
68911;BMP180;55953;51.650;-0.522;2022-09-09T02:35:02;99316.80;;;16.10
68911;BMP180;55953;51.650;-0.522;2022-09-09T02:37:42;99321.60;;;16.10
68911;BMP180;55953;51.650;-0.522;2022-09-09T02:40:15;99323.80;;;16.10
68911;BMP180;55953;51.650;-0.522;2022-09-09T02:42:48;99322.80;;;16.08
68911;BMP180;55953;51.650;-0.522;2022-09-09T02:45:29;99318.80;;;16.10
68911;BMP180;55953;51.650;-0.522;2022-09-09T02:48:30;99326.20;;;16.08
68911;BMP180;55953;51.650;-0.522;2022-09-09T02:51:24;99326.80;;;16.00
68911;BMP180;55953;51.650;-0.522;2022-09-09T02:54:30;99327.40;;;16.00
68911;BMP180;55953;51.650;-0.522;2022-09-09T02:57:22;99327.20;;;16.00
68911;BMP180;55953;51.650;-0.522;2022-09-09T02:59:51;99325.40;;;16.00
68911;BMP180;55953;51.650;-0.522;2022-09-09T03:02:22;99326.00;;;16.06
68911;BMP180;55953;51.650;-0.522;2022-09-09T03:04:53;99327.60;;;16.10
68911;BMP180;55953;51.650;-0.522;2022-09-09T03:07:22;99323.80;;;16.10
68911;BMP180;55953;51.650;-0.522;2022-09-09T03:09:50;99325.80;;;16.10
68911;BMP180;55953;51.650;-0.522;2022-09-09T03:12:17;99330.40;;;16.00
68911;BMP180;55953;51.650;-0.522;2022-09-09T03:14:45;99331.00;;;16.00
68911;BMP180;55953;51.650;-0.522;2022-09-09T03:17:14;99330.00;;;16.00
68911;BMP180;55953;51.650;-0.522;2022-09-09T03:19:47;99330.40;;;16.00
68911;BMP180;55953;51.650;-0.522;2022-09-09T03:22:17;99328.40;;;16.00
68911;BMP180;55953;51.650;-0.522;2022-09-09T03:24:45;99333.60;;;16.00
68911;BMP180;55953;51.650;-0.522;2022-09-09T03:27:14;99331.80;;;16.00
68911;BMP180;55953;51.650;-0.522;2022-09-09T03:29:42;99340.00;;;16.00
68911;BMP180;55953;51.650;-0.522;2022-09-09T03:32:13;99342.40;;;16.00
68911;BMP180;55953;51.650;-0.522;2022-09-09T03:34:40;99347.60;;;16.00
68911;BMP180;55953;51.650;-0.522;2022-09-09T03:37:10;99351.20;;;15.98
68911;BMP180;55953;51.650;-0.522;2022-09-09T03:39:39;99347.20;;;16.00
68911;BMP180;55953;51.650;-0.522;2022-09-09T03:42:07;99352.00;;;16.00
68911;BMP180;55953;51.650;-0.522;2022-09-09T03:44:35;99354.00;;;16.00
68911;BMP180;55953;51.650;-0.522;2022-09-09T03:47:03;99353.80;;;16.00
68911;BMP180;55953;51.650;-0.522;2022-09-09T03:49:31;99355.20;;;16.00
68911;BMP180;55953;51.650;-0.522;2022-09-09T03:52:00;99352.80;;;16.00
68911;BMP180;55953;51.650;-0.522;2022-09-09T03:54:29;99358.40;;;16.00
68911;BMP180;55953;51.650;-0.522;2022-09-09T03:56:57;99355.80;;;16.00
68911;BMP180;55953;51.650;-0.522;2022-09-09T03:59:25;99356.80;;;16.00
68911;BMP180;55953;51.650;-0.522;2022-09-09T04:01:54;99359.00;;;16.00
68911;BMP180;55953;51.650;-0.522;2022-09-09T04:04:22;99367.20;;;16.00
68911;BMP180;55953;51.650;-0.522;2022-09-09T04:06:50;99373.00;;;16.00
68911;BMP180;55953;51.650;-0.522;2022-09-09T04:09:18;99376.60;;;16.00
68911;BMP180;55953;51.650;-0.522;2022-09-09T04:11:47;99379.80;;;16.00
68911;BMP180;55953;51.650;-0.522;2022-09-09T04:14:17;99383.20;;;16.00
68911;BMP180;55953;51.650;-0.522;2022-09-09T04:16:44;99385.60;;;16.00
68911;BMP180;55953;51.650;-0.522;2022-09-09T04:19:13;99390.60;;;16.00
68911;BMP180;55953;51.650;-0.522;2022-09-09T04:21:42;99389.80;;;16.00
68911;BMP180;55953;51.650;-0.522;2022-09-09T04:24:10;99390.60;;;16.00
68911;BMP180;55953;51.650;-0.522;2022-09-09T04:26:38;99386.20;;;16.00
68911;BMP180;55953;51.650;-0.522;2022-09-09T04:29:05;99389.00;;;16.00
68911;BMP180;55953;51.650;-0.522;2022-09-09T04:31:35;99387.20;;;16.00
68911;BMP180;55953;51.650;-0.522;2022-09-09T04:34:02;99392.00;;;16.00
68911;BMP180;55953;51.650;-0.522;2022-09-09T04:36:33;99392.80;;;16.00
68911;BMP180;55953;51.650;-0.522;2022-09-09T04:39:03;99388.40;;;16.00
68911;BMP180;55953;51.650;-0.522;2022-09-09T04:41:30;99396.20;;;15.94
68911;BMP180;55953;51.650;-0.522;2022-09-09T04:43:59;99394.40;;;15.90
68911;BMP180;55953;51.650;-0.522;2022-09-09T04:46:28;99394.80;;;15.92
68911;BMP180;55953;51.650;-0.522;2022-09-09T04:48:57;99400.80;;;16.00
68911;BMP180;55953;51.650;-0.522;2022-09-09T04:51:27;99403.40;;;16.00
68911;BMP180;55953;51.650;-0.522;2022-09-09T04:53:55;99398.80;;;16.00
68911;BMP180;55953;51.650;-0.522;2022-09-09T04:56:23;99399.60;;;16.00
68911;BMP180;55953;51.650;-0.522;2022-09-09T04:58:56;99402.60;;;16.00
68911;BMP180;55953;51.650;-0.522;2022-09-09T05:01:31;99406.60;;;16.00
68911;BMP180;55953;51.650;-0.522;2022-09-09T05:04:02;99407.60;;;16.00
68911;BMP180;55953;51.650;-0.522;2022-09-09T05:06:32;99409.80;;;16.00
68911;BMP180;55953;51.650;-0.522;2022-09-09T05:09:00;99415.00;;;15.98
68911;BMP180;55953;51.650;-0.522;2022-09-09T05:11:31;99421.00;;;15.90
68911;BMP180;55953;51.650;-0.522;2022-09-09T05:14:20;99424.40;;;15.90
68911;BMP180;55953;51.650;-0.522;2022-09-09T05:16:48;99428.80;;;15.80
68911;BMP180;55953;51.650;-0.522;2022-09-09T05:19:17;99433.60;;;15.80
68911;BMP180;55953;51.650;-0.522;2022-09-09T05:21:48;99432.00;;;15.82
68911;BMP180;55953;51.650;-0.522;2022-09-09T05:24:19;99435.40;;;15.80
68911;BMP180;55953;51.650;-0.522;2022-09-09T05:26:47;99434.20;;;15.80
68911;BMP180;55953;51.650;-0.522;2022-09-09T05:29:17;99438.00;;;15.80
68911;BMP180;55953;51.650;-0.522;2022-09-09T05:31:47;99436.00;;;15.80
68911;BMP180;55953;51.650;-0.522;2022-09-09T05:34:16;99438.20;;;15.80
68911;BMP180;55953;51.650;-0.522;2022-09-09T05:36:44;99442.80;;;15.80
68911;BMP180;55953;51.650;-0.522;2022-09-09T05:39:12;99448.20;;;15.80
68911;BMP180;55953;51.650;-0.522;2022-09-09T05:41:40;99448.60;;;15.80
68911;BMP180;55953;51.650;-0.522;2022-09-09T05:44:08;99453.40;;;15.70
68911;BMP180;55953;51.650;-0.522;2022-09-09T05:46:38;99461.40;;;15.70
68911;BMP180;55953;51.650;-0.522;2022-09-09T05:49:06;99462.00;;;15.60
68911;BMP180;55953;51.650;-0.522;2022-09-09T05:51:35;99459.40;;;15.60
68911;BMP180;55953;51.650;-0.522;2022-09-09T05:54:06;99465.00;;;15.60
68911;BMP180;55953;51.650;-0.522;2022-09-09T05:56:37;99466.80;;;15.60
68911;BMP180;55953;51.650;-0.522;2022-09-09T05:59:07;99470.00;;;15.52
68911;BMP180;55953;51.650;-0.522;2022-09-09T06:01:36;99472.20;;;15.56
68911;BMP180;55953;51.650;-0.522;2022-09-09T06:04:09;99475.40;;;15.50
68911;BMP180;55953;51.650;-0.522;2022-09-09T06:06:39;99476.60;;;15.50
68911;BMP180;55953;51.650;-0.522;2022-09-09T06:09:11;99482.60;;;15.50
68911;BMP180;55953;51.650;-0.522;2022-09-09T06:11:42;99480.60;;;15.52
68911;BMP180;55953;51.650;-0.522;2022-09-09T06:14:10;99480.00;;;15.60
68911;BMP180;55953;51.650;-0.522;2022-09-09T06:16:39;99479.40;;;15.68
68911;BMP180;55953;51.650;-0.522;2022-09-09T06:19:12;99483.60;;;15.70
68911;BMP180;55953;51.650;-0.522;2022-09-09T06:21:40;99481.80;;;15.80
68911;BMP180;55953;51.650;-0.522;2022-09-09T06:24:09;99488.60;;;15.80
68911;BMP180;55953;51.650;-0.522;2022-09-09T06:26:39;99492.20;;;15.88
68911;BMP180;55953;51.650;-0.522;2022-09-09T06:29:12;99488.40;;;15.88
68911;BMP180;55953;51.650;-0.522;2022-09-09T06:31:41;99489.40;;;15.90
68911;BMP180;55953;51.650;-0.522;2022-09-09T06:34:18;99492.80;;;15.90
68911;BMP180;55953;51.650;-0.522;2022-09-09T06:36:48;99493.20;;;16.00
68911;BMP180;55953;51.650;-0.522;2022-09-09T06:39:16;99495.60;;;16.10
68911;BMP180;55953;51.650;-0.522;2022-09-09T06:41:44;99499.80;;;16.10
68911;BMP180;55953;51.650;-0.522;2022-09-09T06:44:35;99508.00;;;16.10
68911;BMP180;55953;51.650;-0.522;2022-09-09T06:47:04;99506.40;;;16.10
68911;BMP180;55953;51.650;-0.522;2022-09-09T06:49:33;99510.00;;;16.10
68911;BMP180;55953;51.650;-0.522;2022-09-09T06:52:03;99514.80;;;16.10
68911;BMP180;55953;51.650;-0.522;2022-09-09T06:54:31;99518.80;;;16.06
68911;BMP180;55953;51.650;-0.522;2022-09-09T06:56:59;99520.40;;;16.00
68911;BMP180;55953;51.650;-0.522;2022-09-09T06:59:48;99519.40;;;16.00
68911;BMP180;55953;51.650;-0.522;2022-09-09T07:02:16;99518.40;;;16.00
68911;BMP180;55953;51.650;-0.522;2022-09-09T07:04:44;99520.60;;;16.08
68911;BMP180;55953;51.650;-0.522;2022-09-09T07:07:12;99525.60;;;16.10
68911;BMP180;55953;51.650;-0.522;2022-09-09T07:09:41;99526.60;;;16.20
68911;BMP180;55953;51.650;-0.522;2022-09-09T07:12:09;99527.00;;;16.20
68911;BMP180;55953;51.650;-0.522;2022-09-09T07:14:38;99525.40;;;16.30
68911;BMP180;55953;51.650;-0.522;2022-09-09T07:17:07;99529.00;;;16.30
68911;BMP180;55953;51.650;-0.522;2022-09-09T07:19:37;99526.00;;;16.40
68911;BMP180;55953;51.650;-0.522;2022-09-09T07:22:05;99539.20;;;16.40
68911;BMP180;55953;51.650;-0.522;2022-09-09T07:24:34;99543.60;;;16.36
68911;BMP180;55953;51.650;-0.522;2022-09-09T07:27:01;99542.40;;;16.30
68911;BMP180;55953;51.650;-0.522;2022-09-09T07:29:31;99543.80;;;16.30
68911;BMP180;55953;51.650;-0.522;2022-09-09T07:31:59;99544.40;;;16.30
68911;BMP180;55953;51.650;-0.522;2022-09-09T07:34:32;99545.80;;;16.40
68911;BMP180;55953;51.650;-0.522;2022-09-09T07:36:59;99545.00;;;16.48
68911;BMP180;55953;51.650;-0.522;2022-09-09T07:39:28;99547.20;;;16.50
68911;BMP180;55953;51.650;-0.522;2022-09-09T07:41:56;99550.00;;;16.54
68911;BMP180;55953;51.650;-0.522;2022-09-09T07:44:26;99551.60;;;16.48
68911;BMP180;55953;51.650;-0.522;2022-09-09T07:47:02;99558.40;;;16.40
68911;BMP180;55953;51.650;-0.522;2022-09-09T07:49:35;99568.40;;;16.40
68911;BMP180;55953;51.650;-0.522;2022-09-09T07:52:04;99571.80;;;16.40
68911;BMP180;55953;51.650;-0.522;2022-09-09T07:54:34;99578.60;;;16.40
68911;BMP180;55953;51.650;-0.522;2022-09-09T07:57:04;99577.00;;;16.30
68911;BMP180;55953;51.650;-0.522;2022-09-09T07:59:33;99573.40;;;16.20
68911;BMP180;55953;51.650;-0.522;2022-09-09T08:02:01;99583.00;;;16.20
68911;BMP180;55953;51.650;-0.522;2022-09-09T08:04:30;99580.60;;;16.10
68911;BMP180;55953;51.650;-0.522;2022-09-09T08:07:01;99585.00;;;16.10
68911;BMP180;55953;51.650;-0.522;2022-09-09T08:09:34;99581.40;;;16.10
68911;BMP180;55953;51.650;-0.522;2022-09-09T08:12:08;99594.60;;;16.10
68911;BMP180;55953;51.650;-0.522;2022-09-09T08:14:36;99592.20;;;16.10
68911;BMP180;55953;51.650;-0.522;2022-09-09T08:17:04;99597.40;;;16.10
68911;BMP180;55953;51.650;-0.522;2022-09-09T08:19:32;99604.60;;;16.20
68911;BMP180;55953;51.650;-0.522;2022-09-09T08:22:06;99612.20;;;16.20
68911;BMP180;55953;51.650;-0.522;2022-09-09T08:24:35;99616.80;;;16.20
68911;BMP180;55953;51.650;-0.522;2022-09-09T08:27:03;99622.20;;;16.20
68911;BMP180;55953;51.650;-0.522;2022-09-09T08:29:32;99624.40;;;16.28
68911;BMP180;55953;51.650;-0.522;2022-09-09T08:31:59;99626.40;;;16.30
68911;BMP180;55953;51.650;-0.522;2022-09-09T08:34:28;99628.80;;;16.30
68911;BMP180;55953;51.650;-0.522;2022-09-09T08:36:59;99628.60;;;16.30
68911;BMP180;55953;51.650;-0.522;2022-09-09T08:39:31;99635.40;;;16.40
68911;BMP180;55953;51.650;-0.522;2022-09-09T08:42:35;99635.40;;;16.40
68911;BMP180;55953;51.650;-0.522;2022-09-09T08:45:23;99637.60;;;16.38
68911;BMP180;55953;51.650;-0.522;2022-09-09T08:48:44;99638.20;;;16.36
68911;BMP180;55953;51.650;-0.522;2022-09-09T08:51:01;99644.40;;;16.40
68911;BMP180;55953;51.650;-0.522;2022-09-09T08:53:51;99644.80;;;16.40
68911;BMP180;55953;51.650;-0.522;2022-09-09T08:56:28;99644.20;;;16.50
68911;BMP180;55953;51.650;-0.522;2022-09-09T08:59:01;99645.60;;;16.50
68911;BMP180;55953;51.650;-0.522;2022-09-09T09:01:58;99646.00;;;16.60
68911;BMP180;55953;51.650;-0.522;2022-09-09T09:05:04;99650.20;;;16.70
68911;BMP180;55953;51.650;-0.522;2022-09-09T09:10:50;99655.00;;;17.00
68911;BMP180;55953;51.650;-0.522;2022-09-09T09:16:34;99664.60;;;17.24
68911;BMP180;55953;51.650;-0.522;2022-09-09T09:19:13;99669.60;;;17.30
68911;BMP180;55953;51.650;-0.522;2022-09-09T09:21:57;99670.00;;;17.40
68911;BMP180;55953;51.650;-0.522;2022-09-09T09:30:35;99679.00;;;17.80
68911;BMP180;55953;51.650;-0.522;2022-09-09T09:35:43;99692.20;;;17.70
68911;BMP180;55953;51.650;-0.522;2022-09-09T09:38:24;99697.40;;;17.50
68911;BMP180;55953;51.650;-0.522;2022-09-09T09:41:12;99702.40;;;17.34
68911;BMP180;55953;51.650;-0.522;2022-09-09T09:43:41;99702.60;;;17.16
68911;BMP180;55953;51.650;-0.522;2022-09-09T09:46:22;99704.80;;;17.04
68911;BMP180;55953;51.650;-0.522;2022-09-09T09:49:09;99705.60;;;17.00
68911;BMP180;55953;51.650;-0.522;2022-09-09T09:51:37;99708.80;;;17.00
68911;BMP180;55953;51.650;-0.522;2022-09-09T09:56:42;99713.80;;;17.00
68911;BMP180;55953;51.650;-0.522;2022-09-09T09:59:35;99713.20;;;17.10
68911;BMP180;55953;51.650;-0.522;2022-09-09T10:02:20;99719.60;;;17.20
68911;BMP180;55953;51.650;-0.522;2022-09-09T10:05:15;99722.20;;;17.30
68911;BMP180;55953;51.650;-0.522;2022-09-09T10:07:45;99725.00;;;17.36
68911;BMP180;55953;51.650;-0.522;2022-09-09T10:10:36;99722.20;;;17.60
68911;BMP180;55953;51.650;-0.522;2022-09-09T10:16:29;99723.40;;;18.02
68911;BMP180;55953;51.650;-0.522;2022-09-09T10:19:36;99725.40;;;18.30
68911;BMP180;55953;51.650;-0.522;2022-09-09T10:22:27;99729.80;;;18.46
68911;BMP180;55953;51.650;-0.522;2022-09-09T10:34:17;99727.00;;;18.80
68911;BMP180;55953;51.650;-0.522;2022-09-09T10:36:49;99726.80;;;18.70
68911;BMP180;55953;51.650;-0.522;2022-09-09T10:39:39;99727.80;;;18.70
68911;BMP180;55953;51.650;-0.522;2022-09-09T10:42:14;99729.40;;;18.78
68911;BMP180;55953;51.650;-0.522;2022-09-09T10:45:05;99729.80;;;18.90
68911;BMP180;55953;51.650;-0.522;2022-09-09T10:47:59;99730.80;;;19.10
68911;BMP180;55953;51.650;-0.522;2022-09-09T10:53:46;99726.20;;;19.10
68911;BMP180;55953;51.650;-0.522;2022-09-09T10:56:20;99733.00;;;19.00
68911;BMP180;55953;51.650;-0.522;2022-09-09T10:59:02;99741.20;;;19.02
68911;BMP180;55953;51.650;-0.522;2022-09-09T11:01:41;99736.00;;;19.10
68911;BMP180;55953;51.650;-0.522;2022-09-09T11:04:29;99738.40;;;19.26
68911;BMP180;55953;51.650;-0.522;2022-09-09T11:07:06;99741.40;;;19.40
68911;BMP180;55953;51.650;-0.522;2022-09-09T11:09:47;99739.00;;;19.50
68911;BMP180;55953;51.650;-0.522;2022-09-09T11:12:19;99741.80;;;19.50
68911;BMP180;55953;51.650;-0.522;2022-09-09T11:15:05;99740.40;;;19.50
68911;BMP180;55953;51.650;-0.522;2022-09-09T11:17:44;99738.00;;;19.50
68911;BMP180;55953;51.650;-0.522;2022-09-09T11:20:14;99746.20;;;19.62
68911;BMP180;55953;51.650;-0.522;2022-09-09T11:25:42;99749.20;;;20.00
68911;BMP180;55953;51.650;-0.522;2022-09-09T11:28:29;99746.40;;;20.10
68911;BMP180;55953;51.650;-0.522;2022-09-09T11:34:25;99762.40;;;20.00
68911;BMP180;55953;51.650;-0.522;2022-09-09T11:42:49;99764.20;;;19.70
68911;BMP180;55953;51.650;-0.522;2022-09-09T11:45:29;99759.00;;;19.60
68911;BMP180;55953;51.650;-0.522;2022-09-09T11:48:01;99765.00;;;19.40
68911;BMP180;55953;51.650;-0.522;2022-09-09T11:50:36;99767.00;;;19.30
68911;BMP180;55953;51.650;-0.522;2022-09-09T11:53:18;99767.60;;;19.30
68911;BMP180;55953;51.650;-0.522;2022-09-09T11:56:12;99769.80;;;19.36
68911;BMP180;55953;51.650;-0.522;2022-09-09T12:12:49;99770.40;;;19.90
68911;BMP180;55953;51.650;-0.522;2022-09-09T12:15:26;99773.20;;;19.80
68911;BMP180;55953;51.650;-0.522;2022-09-09T12:17:58;99770.80;;;19.90
68911;BMP180;55953;51.650;-0.522;2022-09-09T12:20:31;99777.20;;;19.90
68911;BMP180;55953;51.650;-0.522;2022-09-09T12:23:22;99778.40;;;19.80
68911;BMP180;55953;51.650;-0.522;2022-09-09T12:32:28;99772.00;;;19.80
68911;BMP180;55953;51.650;-0.522;2022-09-09T12:35:12;99770.40;;;19.70
68911;BMP180;55953;51.650;-0.522;2022-09-09T12:37:49;99773.60;;;19.60
68911;BMP180;55953;51.650;-0.522;2022-09-09T12:40:33;99771.60;;;19.58
68911;BMP180;55953;51.650;-0.522;2022-09-09T12:43:21;99776.60;;;19.54
68911;BMP180;55953;51.650;-0.522;2022-09-09T12:45:54;99779.60;;;19.70
68911;BMP180;55953;51.650;-0.522;2022-09-09T12:48:36;99777.00;;;19.70
68911;BMP180;55953;51.650;-0.522;2022-09-09T12:51:19;99776.60;;;19.70
68911;BMP180;55953;51.650;-0.522;2022-09-09T12:53:48;99772.20;;;19.70
68911;BMP180;55953;51.650;-0.522;2022-09-09T12:56:21;99774.80;;;19.70
68911;BMP180;55953;51.650;-0.522;2022-09-09T12:58:51;99772.20;;;19.60
68911;BMP180;55953;51.650;-0.522;2022-09-09T13:01:27;99774.00;;;19.50
68911;BMP180;55953;51.650;-0.522;2022-09-09T13:03:56;99777.20;;;19.42
68911;BMP180;55953;51.650;-0.522;2022-09-09T13:06:32;99777.40;;;19.50
68911;BMP180;55953;51.650;-0.522;2022-09-09T13:09:02;99781.60;;;19.50
68911;BMP180;55953;51.650;-0.522;2022-09-09T13:11:41;99785.60;;;19.50
68911;BMP180;55953;51.650;-0.522;2022-09-09T13:14:29;99783.60;;;19.50
68911;BMP180;55953;51.650;-0.522;2022-09-09T13:17:02;99787.60;;;19.50
68911;BMP180;55953;51.650;-0.522;2022-09-09T13:19:38;99784.80;;;19.50
68911;BMP180;55953;51.650;-0.522;2022-09-09T13:22:30;99787.60;;;19.58
68911;BMP180;55953;51.650;-0.522;2022-09-09T13:25:17;99789.60;;;19.60
68911;BMP180;55953;51.650;-0.522;2022-09-09T13:30:32;99800.60;;;19.60
68911;BMP180;55953;51.650;-0.522;2022-09-09T13:33:33;99801.60;;;19.60
68911;BMP180;55953;51.650;-0.522;2022-09-09T13:36:06;99809.20;;;19.70
68911;BMP180;55953;51.650;-0.522;2022-09-09T13:38:55;99809.00;;;19.74
68911;BMP180;55953;51.650;-0.522;2022-09-09T13:41:28;99806.60;;;19.80
68911;BMP180;55953;51.650;-0.522;2022-09-09T13:43:58;99798.40;;;19.96
68911;BMP180;55953;51.650;-0.522;2022-09-09T13:46:39;99801.20;;;20.10
68911;BMP180;55953;51.650;-0.522;2022-09-09T13:51:41;99792.40;;;20.00
68911;BMP180;55953;51.650;-0.522;2022-09-09T13:54:11;99796.00;;;20.16
68911;BMP180;55953;51.650;-0.522;2022-09-09T13:56:40;99794.80;;;20.30
68911;BMP180;55953;51.650;-0.522;2022-09-09T13:59:16;99796.40;;;20.50
68911;BMP180;55953;51.650;-0.522;2022-09-09T14:01:44;99796.20;;;20.70
68911;BMP180;55953;51.650;-0.522;2022-09-09T14:04:12;99792.60;;;20.80
68911;BMP180;55953;51.650;-0.522;2022-09-09T14:06:40;99801.00;;;20.80
68911;BMP180;55953;51.650;-0.522;2022-09-09T14:09:13;99801.20;;;20.80
68911;BMP180;55953;51.650;-0.522;2022-09-09T14:11:45;99802.00;;;20.76
68911;BMP180;55953;51.650;-0.522;2022-09-09T14:14:15;99799.00;;;20.60
68911;BMP180;55953;51.650;-0.522;2022-09-09T14:16:43;99807.00;;;20.58
68911;BMP180;55953;51.650;-0.522;2022-09-09T14:19:12;99815.60;;;20.50
68911;BMP180;55953;51.650;-0.522;2022-09-09T14:21:39;99812.00;;;20.30
68911;BMP180;55953;51.650;-0.522;2022-09-09T14:24:07;99819.20;;;20.18
68911;BMP180;55953;51.650;-0.522;2022-09-09T14:26:35;99825.80;;;20.00
68911;BMP180;55953;51.650;-0.522;2022-09-09T14:29:02;99826.20;;;19.90
68911;BMP180;55953;51.650;-0.522;2022-09-09T14:31:30;99826.60;;;19.70
68911;BMP180;55953;51.650;-0.522;2022-09-09T14:33:58;99825.00;;;19.60
68911;BMP180;55953;51.650;-0.522;2022-09-09T14:36:26;99834.80;;;19.40
68911;BMP180;55953;51.650;-0.522;2022-09-09T14:38:54;99842.20;;;19.20
68911;BMP180;55953;51.650;-0.522;2022-09-09T14:41:21;99843.20;;;19.06
68911;BMP180;55953;51.650;-0.522;2022-09-09T14:43:50;99844.20;;;18.90
68911;BMP180;55953;51.650;-0.522;2022-09-09T14:46:19;99842.40;;;18.74
68911;BMP180;55953;51.650;-0.522;2022-09-09T14:48:47;99846.20;;;18.60
68911;BMP180;55953;51.650;-0.522;2022-09-09T14:51:27;99844.20;;;18.50
68911;BMP180;55953;51.650;-0.522;2022-09-09T14:53:58;99840.80;;;18.40
68911;BMP180;55953;51.650;-0.522;2022-09-09T14:56:31;99838.40;;;18.40
68911;BMP180;55953;51.650;-0.522;2022-09-09T14:58:59;99838.80;;;18.36
68911;BMP180;55953;51.650;-0.522;2022-09-09T15:01:30;99842.60;;;18.34
68911;BMP180;55953;51.650;-0.522;2022-09-09T15:04:02;99843.20;;;18.40
68911;BMP180;55953;51.650;-0.522;2022-09-09T15:06:33;99843.60;;;18.50
68911;BMP180;55953;51.650;-0.522;2022-09-09T15:09:02;99840.00;;;18.60
68911;BMP180;55953;51.650;-0.522;2022-09-09T15:11:34;99842.00;;;18.70
68911;BMP180;55953;51.650;-0.522;2022-09-09T15:14:07;99842.40;;;18.84
68911;BMP180;55953;51.650;-0.522;2022-09-09T15:16:36;99848.40;;;19.00
68911;BMP180;55953;51.650;-0.522;2022-09-09T15:19:04;99844.60;;;19.00
68911;BMP180;55953;51.650;-0.522;2022-09-09T15:21:34;99846.80;;;19.00
68911;BMP180;55953;51.650;-0.522;2022-09-09T15:24:03;99847.40;;;19.00
68911;BMP180;55953;51.650;-0.522;2022-09-09T15:26:31;99845.20;;;19.10
68911;BMP180;55953;51.650;-0.522;2022-09-09T15:28:59;99851.20;;;19.10
68911;BMP180;55953;51.650;-0.522;2022-09-09T15:31:30;99860.40;;;19.10
68911;BMP180;55953;51.650;-0.522;2022-09-09T15:34:06;99859.80;;;19.10
68911;BMP180;55953;51.650;-0.522;2022-09-09T15:36:40;99861.80;;;19.18
68911;BMP180;55953;51.650;-0.522;2022-09-09T15:39:10;99864.40;;;19.16
68911;BMP180;55953;51.650;-0.522;2022-09-09T15:41:45;99863.80;;;19.20
68911;BMP180;55953;51.650;-0.522;2022-09-09T15:44:15;99864.00;;;19.10
68911;BMP180;55953;51.650;-0.522;2022-09-09T15:46:46;99863.20;;;19.10
68911;BMP180;55953;51.650;-0.522;2022-09-09T15:49:24;99867.20;;;19.10
68911;BMP180;55953;51.650;-0.522;2022-09-09T15:51:56;99867.80;;;19.10
68911;BMP180;55953;51.650;-0.522;2022-09-09T15:54:25;99866.00;;;19.10
68911;BMP180;55953;51.650;-0.522;2022-09-09T15:56:59;99863.40;;;19.00
68911;BMP180;55953;51.650;-0.522;2022-09-09T15:59:30;99863.20;;;19.00
68911;BMP180;55953;51.650;-0.522;2022-09-09T16:01:59;99863.40;;;19.00
68911;BMP180;55953;51.650;-0.522;2022-09-09T16:04:30;99868.60;;;19.10
68911;BMP180;55953;51.650;-0.522;2022-09-09T16:07:02;99873.20;;;19.10
68911;BMP180;55953;51.650;-0.522;2022-09-09T16:09:32;99873.40;;;19.10
68911;BMP180;55953;51.650;-0.522;2022-09-09T16:12:01;99866.20;;;19.10
68911;BMP180;55953;51.650;-0.522;2022-09-09T16:14:30;99867.20;;;19.10
68911;BMP180;55953;51.650;-0.522;2022-09-09T16:17:06;99873.80;;;19.10